sensor_id;sensor_type;location;lat;lon;timestamp;temperature;humidity
61641;HTU21D;62201;49.966;8.342;2023-05-29T00:01:50;16.90;53.17
61641;HTU21D;62201;49.966;8.342;2023-05-29T00:04:16;16.91;53.36
61641;HTU21D;62201;49.966;8.342;2023-05-29T00:06:42;16.91;53.18
61641;HTU21D;62201;49.966;8.342;2023-05-29T00:09:07;16.92;53.22
61641;HTU21D;62201;49.966;8.342;2023-05-29T00:11:32;16.93;52.99
61641;HTU21D;62201;49.966;8.342;2023-05-29T00:13:58;16.94;53.20
61641;HTU21D;62201;49.966;8.342;2023-05-29T00:16:24;16.93;53.07
61641;HTU21D;62201;49.966;8.342;2023-05-29T00:18:49;16.91;53.05
61641;HTU21D;62201;49.966;8.342;2023-05-29T00:21:17;16.95;52.88
61641;HTU21D;62201;49.966;8.342;2023-05-29T00:23:42;16.99;52.78
61641;HTU21D;62201;49.966;8.342;2023-05-29T00:26:08;16.99;52.73
61641;HTU21D;62201;49.966;8.342;2023-05-29T00:28:36;16.98;52.91
61641;HTU21D;62201;49.966;8.342;2023-05-29T00:31:02;17.01;52.65
61641;HTU21D;62201;49.966;8.342;2023-05-29T00:33:27;16.99;52.78
61641;HTU21D;62201;49.966;8.342;2023-05-29T00:35:53;16.95;52.84
61641;HTU21D;62201;49.966;8.342;2023-05-29T00:38:18;16.94;52.81
61641;HTU21D;62201;49.966;8.342;2023-05-29T00:40:45;16.98;52.72
61641;HTU21D;62201;49.966;8.342;2023-05-29T00:43:10;16.98;52.69
61641;HTU21D;62201;49.966;8.342;2023-05-29T00:45:35;16.91;52.83
61641;HTU21D;62201;49.966;8.342;2023-05-29T00:48:05;16.87;53.04
61641;HTU21D;62201;49.966;8.342;2023-05-29T00:50:32;16.88;52.95
61641;HTU21D;62201;49.966;8.342;2023-05-29T00:52:59;16.87;53.03
61641;HTU21D;62201;49.966;8.342;2023-05-29T00:55:27;16.94;52.80
61641;HTU21D;62201;49.966;8.342;2023-05-29T00:57:53;16.88;52.98
61641;HTU21D;62201;49.966;8.342;2023-05-29T01:00:18;16.81;53.38
61641;HTU21D;62201;49.966;8.342;2023-05-29T01:02:45;16.80;53.20
61641;HTU21D;62201;49.966;8.342;2023-05-29T01:05:12;16.73;53.66
61641;HTU21D;62201;49.966;8.342;2023-05-29T01:07:38;16.67;53.68
61641;HTU21D;62201;49.966;8.342;2023-05-29T01:10:07;16.65;53.77
61641;HTU21D;62201;49.966;8.342;2023-05-29T01:24:01;16.46;54.80
61641;HTU21D;62201;49.966;8.342;2023-05-29T01:29:15;16.54;54.30
61641;HTU21D;62201;49.966;8.342;2023-05-29T01:31:42;16.59;54.37
61641;HTU21D;62201;49.966;8.342;2023-05-29T01:34:08;16.60;54.42
61641;HTU21D;62201;49.966;8.342;2023-05-29T01:36:34;16.59;54.30
61641;HTU21D;62201;49.966;8.342;2023-05-29T01:39:03;16.58;54.41
61641;HTU21D;62201;49.966;8.342;2023-05-29T01:41:30;16.56;54.40
61641;HTU21D;62201;49.966;8.342;2023-05-29T01:43:58;16.57;54.36
61641;HTU21D;62201;49.966;8.342;2023-05-29T01:46:24;16.52;54.49
61641;HTU21D;62201;49.966;8.342;2023-05-29T01:48:53;16.48;54.46
61641;HTU21D;62201;49.966;8.342;2023-05-29T01:51:20;16.43;54.62
61641;HTU21D;62201;49.966;8.342;2023-05-29T01:53:46;16.34;54.78
61641;HTU21D;62201;49.966;8.342;2023-05-29T01:56:11;16.25;55.03
61641;HTU21D;62201;49.966;8.342;2023-05-29T01:58:38;16.17;55.16
61641;HTU21D;62201;49.966;8.342;2023-05-29T02:01:05;16.08;55.43
61641;HTU21D;62201;49.966;8.342;2023-05-29T02:03:31;16.03;55.65
61641;HTU21D;62201;49.966;8.342;2023-05-29T02:05:57;15.99;55.80
61641;HTU21D;62201;49.966;8.342;2023-05-29T02:08:23;15.95;55.90
61641;HTU21D;62201;49.966;8.342;2023-05-29T02:10:48;15.92;56.07
61641;HTU21D;62201;49.966;8.342;2023-05-29T02:13:14;15.85;56.33
61641;HTU21D;62201;49.966;8.342;2023-05-29T02:15:40;15.77;56.62
61641;HTU21D;62201;49.966;8.342;2023-05-29T02:18:08;15.69;57.10
61641;HTU21D;62201;49.966;8.342;2023-05-29T02:20:33;15.61;57.17
61641;HTU21D;62201;49.966;8.342;2023-05-29T02:22:59;15.55;57.50
61641;HTU21D;62201;49.966;8.342;2023-05-29T02:25:24;15.53;57.67
61641;HTU21D;62201;49.966;8.342;2023-05-29T02:27:50;15.46;57.80
61641;HTU21D;62201;49.966;8.342;2023-05-29T02:30:21;15.40;58.27
61641;HTU21D;62201;49.966;8.342;2023-05-29T02:32:47;15.33;58.89
61641;HTU21D;62201;49.966;8.342;2023-05-29T02:35:12;15.28;58.90
61641;HTU21D;62201;49.966;8.342;2023-05-29T02:37:42;15.19;59.23
61641;HTU21D;62201;49.966;8.342;2023-05-29T02:40:07;15.08;59.51
61641;HTU21D;62201;49.966;8.342;2023-05-29T02:42:34;14.99;59.86
61641;HTU21D;62201;49.966;8.342;2023-05-29T02:45:00;14.94;60.15
61641;HTU21D;62201;49.966;8.342;2023-05-29T02:47:25;14.91;60.32
61641;HTU21D;62201;49.966;8.342;2023-05-29T02:49:51;14.84;60.51
61641;HTU21D;62201;49.966;8.342;2023-05-29T02:52:16;14.78;60.83
61641;HTU21D;62201;49.966;8.342;2023-05-29T02:54:41;14.72;61.22
61641;HTU21D;62201;49.966;8.342;2023-05-29T02:57:07;14.77;61.28
61641;HTU21D;62201;49.966;8.342;2023-05-29T02:59:32;14.75;61.17
61641;HTU21D;62201;49.966;8.342;2023-05-29T03:01:58;14.75;61.34
61641;HTU21D;62201;49.966;8.342;2023-05-29T03:04:23;14.70;61.56
61641;HTU21D;62201;49.966;8.342;2023-05-29T03:06:48;14.65;61.99
61641;HTU21D;62201;49.966;8.342;2023-05-29T03:09:14;14.59;62.28
61641;HTU21D;62201;49.966;8.342;2023-05-29T03:11:41;14.54;62.59
61641;HTU21D;62201;49.966;8.342;2023-05-29T03:14:06;14.48;62.99
61641;HTU21D;62201;49.966;8.342;2023-05-29T03:16:32;14.39;63.39
61641;HTU21D;62201;49.966;8.342;2023-05-29T03:18:57;14.38;63.80
61641;HTU21D;62201;49.966;8.342;2023-05-29T03:21:23;14.38;63.99
61641;HTU21D;62201;49.966;8.342;2023-05-29T03:23:48;14.36;64.66
61641;HTU21D;62201;49.966;8.342;2023-05-29T03:26:14;14.38;64.62
61641;HTU21D;62201;49.966;8.342;2023-05-29T03:28:39;14.42;64.34
61641;HTU21D;62201;49.966;8.342;2023-05-29T03:31:05;14.47;64.52
61641;HTU21D;62201;49.966;8.342;2023-05-29T03:33:30;14.51;64.54
61641;HTU21D;62201;49.966;8.342;2023-05-29T03:35:56;14.52;65.12
61641;HTU21D;62201;49.966;8.342;2023-05-29T03:38:21;14.55;65.12
61641;HTU21D;62201;49.966;8.342;2023-05-29T03:40:47;14.56;64.94
61641;HTU21D;62201;49.966;8.342;2023-05-29T03:43:12;14.54;65.07
61641;HTU21D;62201;49.966;8.342;2023-05-29T03:45:38;14.54;65.17
61641;HTU21D;62201;49.966;8.342;2023-05-29T03:48:03;14.54;65.28
61641;HTU21D;62201;49.966;8.342;2023-05-29T03:50:29;14.56;65.29
61641;HTU21D;62201;49.966;8.342;2023-05-29T03:52:54;14.58;65.47
61641;HTU21D;62201;49.966;8.342;2023-05-29T03:55:19;14.58;65.56
61641;HTU21D;62201;49.966;8.342;2023-05-29T03:57:45;14.53;65.68
61641;HTU21D;62201;49.966;8.342;2023-05-29T04:00:11;14.50;65.74
61641;HTU21D;62201;49.966;8.342;2023-05-29T04:02:38;14.48;65.81
61641;HTU21D;62201;49.966;8.342;2023-05-29T04:05:05;14.47;65.90
61641;HTU21D;62201;49.966;8.342;2023-05-29T04:07:31;14.48;65.85
61641;HTU21D;62201;49.966;8.342;2023-05-29T04:09:57;14.49;65.78
61641;HTU21D;62201;49.966;8.342;2023-05-29T04:12:22;14.51;65.67
61641;HTU21D;62201;49.966;8.342;2023-05-29T04:14:47;14.54;65.52
61641;HTU21D;62201;49.966;8.342;2023-05-29T04:17:13;14.57;65.33
61641;HTU21D;62201;49.966;8.342;2023-05-29T04:19:38;14.63;65.18
61641;HTU21D;62201;49.966;8.342;2023-05-29T04:22:03;14.67;64.96
61641;HTU21D;62201;49.966;8.342;2023-05-29T04:24:29;14.77;64.70
61641;HTU21D;62201;49.966;8.342;2023-05-29T04:26:57;14.84;64.53
61641;HTU21D;62201;49.966;8.342;2023-05-29T04:29:22;14.88;64.52
61641;HTU21D;62201;49.966;8.342;2023-05-29T04:31:48;14.95;64.23
61641;HTU21D;62201;49.966;8.342;2023-05-29T04:34:13;15.06;64.12
61641;HTU21D;62201;49.966;8.342;2023-05-29T04:36:41;15.17;64.14
61641;HTU21D;62201;49.966;8.342;2023-05-29T04:39:08;15.26;64.02
61641;HTU21D;62201;49.966;8.342;2023-05-29T04:41:34;15.34;63.97
61641;HTU21D;62201;49.966;8.342;2023-05-29T04:44:00;15.44;63.82
61641;HTU21D;62201;49.966;8.342;2023-05-29T04:46:26;15.52;63.82
61641;HTU21D;62201;49.966;8.342;2023-05-29T04:48:52;15.60;63.74
61641;HTU21D;62201;49.966;8.342;2023-05-29T04:51:19;15.70;63.55
61641;HTU21D;62201;49.966;8.342;2023-05-29T04:53:45;15.75;63.61
61641;HTU21D;62201;49.966;8.342;2023-05-29T04:56:12;15.82;63.70
61641;HTU21D;62201;49.966;8.342;2023-05-29T04:58:37;15.86;63.65
61641;HTU21D;62201;49.966;8.342;2023-05-29T05:01:03;15.93;63.66
61641;HTU21D;62201;49.966;8.342;2023-05-29T05:03:32;15.99;63.56
61641;HTU21D;62201;49.966;8.342;2023-05-29T05:05:59;16.03;63.53
61641;HTU21D;62201;49.966;8.342;2023-05-29T05:08:24;16.11;63.52
61641;HTU21D;62201;49.966;8.342;2023-05-29T05:10:50;16.15;63.49
61641;HTU21D;62201;49.966;8.342;2023-05-29T05:13:15;16.19;63.40
61641;HTU21D;62201;49.966;8.342;2023-05-29T05:15:41;16.28;63.28
61641;HTU21D;62201;49.966;8.342;2023-05-29T05:18:06;16.35;62.90
61641;HTU21D;62201;49.966;8.342;2023-05-29T05:20:32;16.40;62.74
61641;HTU21D;62201;49.966;8.342;2023-05-29T05:22:57;16.41;62.53
61641;HTU21D;62201;49.966;8.342;2023-05-29T05:25:22;16.47;62.48
61641;HTU21D;62201;49.966;8.342;2023-05-29T05:27:48;16.55;62.68
61641;HTU21D;62201;49.966;8.342;2023-05-29T05:30:13;16.62;62.72
61641;HTU21D;62201;49.966;8.342;2023-05-29T05:32:39;16.67;62.88
61641;HTU21D;62201;49.966;8.342;2023-05-29T05:35:04;16.72;63.07
61641;HTU21D;62201;49.966;8.342;2023-05-29T05:37:30;16.75;63.25
61641;HTU21D;62201;49.966;8.342;2023-05-29T05:39:55;16.82;63.24
61641;HTU21D;62201;49.966;8.342;2023-05-29T05:42:23;16.88;63.15
61641;HTU21D;62201;49.966;8.342;2023-05-29T05:44:48;16.93;63.24
61641;HTU21D;62201;49.966;8.342;2023-05-29T05:47:14;17.03;63.18
61641;HTU21D;62201;49.966;8.342;2023-05-29T05:49:39;17.10;63.05
61641;HTU21D;62201;49.966;8.342;2023-05-29T05:52:05;17.21;62.97
61641;HTU21D;62201;49.966;8.342;2023-05-29T05:54:31;17.33;62.76
61641;HTU21D;62201;49.966;8.342;2023-05-29T05:56:56;17.39;62.50
61641;HTU21D;62201;49.966;8.342;2023-05-29T05:59:22;17.46;62.15
61641;HTU21D;62201;49.966;8.342;2023-05-29T06:01:47;17.53;61.93
61641;HTU21D;62201;49.966;8.342;2023-05-29T06:04:13;17.55;61.63
61641;HTU21D;62201;49.966;8.342;2023-05-29T06:06:38;17.62;61.37
61641;HTU21D;62201;49.966;8.342;2023-05-29T06:09:04;17.74;60.97
61641;HTU21D;62201;49.966;8.342;2023-05-29T06:11:30;17.85;60.52
61641;HTU21D;62201;49.966;8.342;2023-05-29T06:13:56;17.82;60.01
61641;HTU21D;62201;49.966;8.342;2023-05-29T06:16:22;17.83;59.99
61641;HTU21D;62201;49.966;8.342;2023-05-29T06:18:47;17.87;59.84
61641;HTU21D;62201;49.966;8.342;2023-05-29T06:21:13;17.99;59.54
61641;HTU21D;62201;49.966;8.342;2023-05-29T06:23:38;17.99;59.02
61641;HTU21D;62201;49.966;8.342;2023-05-29T06:26:04;18.07;59.05
61641;HTU21D;62201;49.966;8.342;2023-05-29T06:28:29;18.10;58.98
61641;HTU21D;62201;49.966;8.342;2023-05-29T06:30:55;18.15;58.80
61641;HTU21D;62201;49.966;8.342;2023-05-29T06:33:20;18.25;58.52
61641;HTU21D;62201;49.966;8.342;2023-05-29T06:35:47;18.40;58.45
61641;HTU21D;62201;49.966;8.342;2023-05-29T06:38:13;18.44;58.27
61641;HTU21D;62201;49.966;8.342;2023-05-29T06:40:38;18.62;57.83
61641;HTU21D;62201;49.966;8.342;2023-05-29T06:43:04;18.80;57.16
61641;HTU21D;62201;49.966;8.342;2023-05-29T06:45:29;18.86;56.65
61641;HTU21D;62201;49.966;8.342;2023-05-29T06:47:55;18.97;56.56
61641;HTU21D;62201;49.966;8.342;2023-05-29T06:50:20;19.07;55.97
61641;HTU21D;62201;49.966;8.342;2023-05-29T06:52:46;19.10;54.17
61641;HTU21D;62201;49.966;8.342;2023-05-29T06:55:11;19.13;53.58
61641;HTU21D;62201;49.966;8.342;2023-05-29T06:57:36;19.00;53.54
61641;HTU21D;62201;49.966;8.342;2023-05-29T07:00:06;19.13;53.38
61641;HTU21D;62201;49.966;8.342;2023-05-29T07:02:32;19.15;53.08
61641;HTU21D;62201;49.966;8.342;2023-05-29T07:04:58;19.26;52.48
61641;HTU21D;62201;49.966;8.342;2023-05-29T07:07:23;19.29;52.62
61641;HTU21D;62201;49.966;8.342;2023-05-29T07:09:49;19.37;52.14
61641;HTU21D;62201;49.966;8.342;2023-05-29T07:12:14;19.39;52.01
61641;HTU21D;62201;49.966;8.342;2023-05-29T07:14:40;19.43;52.16
61641;HTU21D;62201;49.966;8.342;2023-05-29T07:17:05;19.58;52.01
61641;HTU21D;62201;49.966;8.342;2023-05-29T07:19:31;19.57;51.91
61641;HTU21D;62201;49.966;8.342;2023-05-29T07:21:59;19.60;52.13
61641;HTU21D;62201;49.966;8.342;2023-05-29T07:24:24;19.74;51.67
61641;HTU21D;62201;49.966;8.342;2023-05-29T07:26:50;19.69;51.64
61641;HTU21D;62201;49.966;8.342;2023-05-29T07:29:16;19.74;52.08
61641;HTU21D;62201;49.966;8.342;2023-05-29T07:31:43;19.69;52.02
61641;HTU21D;62201;49.966;8.342;2023-05-29T07:34:09;19.80;52.24
61641;HTU21D;62201;49.966;8.342;2023-05-29T07:36:35;19.95;52.01
61641;HTU21D;62201;49.966;8.342;2023-05-29T07:39:01;20.02;52.11
61641;HTU21D;62201;49.966;8.342;2023-05-29T07:41:27;20.24;51.69
61641;HTU21D;62201;49.966;8.342;2023-05-29T07:43:53;20.44;51.21
61641;HTU21D;62201;49.966;8.342;2023-05-29T07:46:19;20.44;49.60
61641;HTU21D;62201;49.966;8.342;2023-05-29T07:48:44;20.46;49.38
61641;HTU21D;62201;49.966;8.342;2023-05-29T07:51:11;20.75;48.89
61641;HTU21D;62201;49.966;8.342;2023-05-29T07:53:37;20.74;49.45
61641;HTU21D;62201;49.966;8.342;2023-05-29T07:56:02;20.77;48.57
61641;HTU21D;62201;49.966;8.342;2023-05-29T07:58:28;20.84;48.63
61641;HTU21D;62201;49.966;8.342;2023-05-29T08:00:53;20.98;48.69
61641;HTU21D;62201;49.966;8.342;2023-05-29T08:03:18;21.15;48.19
61641;HTU21D;62201;49.966;8.342;2023-05-29T08:05:44;21.19;47.86
61641;HTU21D;62201;49.966;8.342;2023-05-29T08:08:10;21.24;47.89
61641;HTU21D;62201;49.966;8.342;2023-05-29T08:10:38;21.32;46.99
61641;HTU21D;62201;49.966;8.342;2023-05-29T08:13:03;21.51;46.86
61641;HTU21D;62201;49.966;8.342;2023-05-29T08:15:29;21.64;46.06
61641;HTU21D;62201;49.966;8.342;2023-05-29T08:17:54;21.77;46.19
61641;HTU21D;62201;49.966;8.342;2023-05-29T08:20:20;22.04;45.51
61641;HTU21D;62201;49.966;8.342;2023-05-29T08:22:45;22.13;45.20
61641;HTU21D;62201;49.966;8.342;2023-05-29T08:25:11;22.01;44.37
61641;HTU21D;62201;49.966;8.342;2023-05-29T08:27:36;22.08;43.63
61641;HTU21D;62201;49.966;8.342;2023-05-29T08:30:03;22.10;43.73
61641;HTU21D;62201;49.966;8.342;2023-05-29T08:32:28;22.23;43.79
61641;HTU21D;62201;49.966;8.342;2023-05-29T08:34:54;22.20;44.00
61641;HTU21D;62201;49.966;8.342;2023-05-29T08:37:19;22.81;42.81
61641;HTU21D;62201;49.966;8.342;2023-05-29T08:39:45;23.32;41.78
61641;HTU21D;62201;49.966;8.342;2023-05-29T08:42:13;23.49;41.14
61641;HTU21D;62201;49.966;8.342;2023-05-29T08:44:43;24.00;39.56
61641;HTU21D;62201;49.966;8.342;2023-05-29T08:47:13;23.73;39.46
61641;HTU21D;62201;49.966;8.342;2023-05-29T08:49:44;23.97;38.75
61641;HTU21D;62201;49.966;8.342;2023-05-29T08:52:17;24.43;37.87
61641;HTU21D;62201;49.966;8.342;2023-05-29T08:54:43;24.20;38.48
61641;HTU21D;62201;49.966;8.342;2023-05-29T08:57:11;24.55;38.62
61641;HTU21D;62201;49.966;8.342;2023-05-29T08:59:39;24.65;38.12
61641;HTU21D;62201;49.966;8.342;2023-05-29T09:02:04;24.91;37.89
61641;HTU21D;62201;49.966;8.342;2023-05-29T09:04:31;24.97;37.87
61641;HTU21D;62201;49.966;8.342;2023-05-29T09:06:57;24.58;38.16
61641;HTU21D;62201;49.966;8.342;2023-05-29T09:09:24;24.97;37.62
61641;HTU21D;62201;49.966;8.342;2023-05-29T09:11:51;25.46;36.93
61641;HTU21D;62201;49.966;8.342;2023-05-29T09:14:43;25.45;36.13
61641;HTU21D;62201;49.966;8.342;2023-05-29T09:17:11;25.81;35.54
61641;HTU21D;62201;49.966;8.342;2023-05-29T09:19:37;26.16;34.94
61641;HTU21D;62201;49.966;8.342;2023-05-29T09:22:11;26.78;34.73
61641;HTU21D;62201;49.966;8.342;2023-05-29T09:24:40;26.73;34.45
61641;HTU21D;62201;49.966;8.342;2023-05-29T09:27:08;26.69;33.69
61641;HTU21D;62201;49.966;8.342;2023-05-29T09:29:40;25.89;34.40
61641;HTU21D;62201;49.966;8.342;2023-05-29T09:32:15;25.48;35.13
61641;HTU21D;62201;49.966;8.342;2023-05-29T09:34:42;25.91;34.99
61641;HTU21D;62201;49.966;8.342;2023-05-29T09:37:08;25.67;35.01
61641;HTU21D;62201;49.966;8.342;2023-05-29T09:39:48;25.61;35.45
61641;HTU21D;62201;49.966;8.342;2023-05-29T09:42:14;26.21;34.04
61641;HTU21D;62201;49.966;8.342;2023-05-29T09:44:45;26.47;33.67
61641;HTU21D;62201;49.966;8.342;2023-05-29T09:47:18;26.78;32.92
61641;HTU21D;62201;49.966;8.342;2023-05-29T09:49:44;27.22;31.99
61641;HTU21D;62201;49.966;8.342;2023-05-29T09:52:14;26.82;32.78
61641;HTU21D;62201;49.966;8.342;2023-05-29T09:54:44;26.92;32.43
61641;HTU21D;62201;49.966;8.342;2023-05-29T09:57:13;26.96;32.06
61641;HTU21D;62201;49.966;8.342;2023-05-29T09:59:41;27.13;32.04
61641;HTU21D;62201;49.966;8.342;2023-05-29T10:02:09;27.46;31.71
61641;HTU21D;62201;49.966;8.342;2023-05-29T10:04:37;26.96;32.33
61641;HTU21D;62201;49.966;8.342;2023-05-29T10:07:26;28.25;30.50
61641;HTU21D;62201;49.966;8.342;2023-05-29T10:09:58;28.12;30.02
61641;HTU21D;62201;49.966;8.342;2023-05-29T10:12:26;27.88;30.87
61641;HTU21D;62201;49.966;8.342;2023-05-29T10:14:54;27.89;30.98
61641;HTU21D;62201;49.966;8.342;2023-05-29T10:17:23;27.58;31.07
61641;HTU21D;62201;49.966;8.342;2023-05-29T10:19:50;27.83;30.90
61641;HTU21D;62201;49.966;8.342;2023-05-29T10:22:21;27.71;30.85
61641;HTU21D;62201;49.966;8.342;2023-05-29T10:24:49;27.22;31.45
61641;HTU21D;62201;49.966;8.342;2023-05-29T10:27:15;27.68;30.26
61641;HTU21D;62201;49.966;8.342;2023-05-29T10:29:55;27.51;29.90
61641;HTU21D;62201;49.966;8.342;2023-05-29T10:35:14;27.25;30.50
61641;HTU21D;62201;49.966;8.342;2023-05-29T10:38:08;27.16;30.57
61641;HTU21D;62201;49.966;8.342;2023-05-29T10:40:34;27.26;30.29
61641;HTU21D;62201;49.966;8.342;2023-05-29T10:42:59;27.65;30.09
61641;HTU21D;62201;49.966;8.342;2023-05-29T10:53:06;27.84;28.84
61641;HTU21D;62201;49.966;8.342;2023-05-29T10:55:38;28.82;27.58
61641;HTU21D;62201;49.966;8.342;2023-05-29T10:58:18;28.75;24.59
61641;HTU21D;62201;49.966;8.342;2023-05-29T11:00:45;28.77;24.94
61641;HTU21D;62201;49.966;8.342;2023-05-29T11:03:20;28.20;23.16
61641;HTU21D;62201;49.966;8.342;2023-05-29T11:06:03;27.59;26.42
61641;HTU21D;62201;49.966;8.342;2023-05-29T11:08:42;27.98;26.61
61641;HTU21D;62201;49.966;8.342;2023-05-29T11:11:14;28.27;25.36
61641;HTU21D;62201;49.966;8.342;2023-05-29T11:13:40;28.31;25.64
61641;HTU21D;62201;49.966;8.342;2023-05-29T11:16:16;28.28;24.54
61641;HTU21D;62201;49.966;8.342;2023-05-29T11:18:45;28.34;24.64
61641;HTU21D;62201;49.966;8.342;2023-05-29T11:24:00;28.75;24.60
61641;HTU21D;62201;49.966;8.342;2023-05-29T11:26:29;28.21;25.28
61641;HTU21D;62201;49.966;8.342;2023-05-29T11:29:03;27.87;25.43
61641;HTU21D;62201;49.966;8.342;2023-05-29T11:31:31;27.59;26.00
61641;HTU21D;62201;49.966;8.342;2023-05-29T11:33:59;28.37;24.96
61641;HTU21D;62201;49.966;8.342;2023-05-29T11:36:26;28.25;24.12
61641;HTU21D;62201;49.966;8.342;2023-05-29T11:38:52;28.13;24.73
61641;HTU21D;62201;49.966;8.342;2023-05-29T11:41:18;27.95;25.04
61641;HTU21D;62201;49.966;8.342;2023-05-29T11:43:43;28.06;24.07
61641;HTU21D;62201;49.966;8.342;2023-05-29T11:46:18;28.44;23.95
61641;HTU21D;62201;49.966;8.342;2023-05-29T11:48:48;28.34;24.24
61641;HTU21D;62201;49.966;8.342;2023-05-29T11:51:14;28.39;23.55
61641;HTU21D;62201;49.966;8.342;2023-05-29T11:53:41;28.03;23.21
61641;HTU21D;62201;49.966;8.342;2023-05-29T11:56:08;27.98;23.98
61641;HTU21D;62201;49.966;8.342;2023-05-29T11:58:39;28.49;23.66
61641;HTU21D;62201;49.966;8.342;2023-05-29T12:01:05;28.21;25.33
61641;HTU21D;62201;49.966;8.342;2023-05-29T12:03:37;27.89;26.92
61641;HTU21D;62201;49.966;8.342;2023-05-29T12:06:03;27.82;27.65
61641;HTU21D;62201;49.966;8.342;2023-05-29T12:08:29;27.84;28.18
61641;HTU21D;62201;49.966;8.342;2023-05-29T12:10:54;27.84;28.02
61641;HTU21D;62201;49.966;8.342;2023-05-29T12:13:20;28.15;27.75
61641;HTU21D;62201;49.966;8.342;2023-05-29T12:15:47;28.08;28.39
61641;HTU21D;62201;49.966;8.342;2023-05-29T12:18:14;28.18;27.10
61641;HTU21D;62201;49.966;8.342;2023-05-29T12:20:40;27.71;28.10
61641;HTU21D;62201;49.966;8.342;2023-05-29T12:23:05;27.95;27.73
61641;HTU21D;62201;49.966;8.342;2023-05-29T12:25:34;28.10;27.47
61641;HTU21D;62201;49.966;8.342;2023-05-29T12:28:02;28.21;27.10
61641;HTU21D;62201;49.966;8.342;2023-05-29T12:30:28;28.83;26.37
61641;HTU21D;62201;49.966;8.342;2023-05-29T12:32:53;29.04;26.52
61641;HTU21D;62201;49.966;8.342;2023-05-29T12:35:19;29.00;27.01
61641;HTU21D;62201;49.966;8.342;2023-05-29T12:37:49;28.99;27.10
61641;HTU21D;62201;49.966;8.342;2023-05-29T12:40:19;28.97;26.48
61641;HTU21D;62201;49.966;8.342;2023-05-29T12:42:47;28.86;27.05
61641;HTU21D;62201;49.966;8.342;2023-05-29T12:45:13;28.86;26.99
61641;HTU21D;62201;49.966;8.342;2023-05-29T12:50:27;28.38;28.13
61641;HTU21D;62201;49.966;8.342;2023-05-29T12:55:31;29.15;26.85
61641;HTU21D;62201;49.966;8.342;2023-05-29T12:57:59;29.36;26.11
61641;HTU21D;62201;49.966;8.342;2023-05-29T13:00:25;29.19;26.01
61641;HTU21D;62201;49.966;8.342;2023-05-29T13:02:51;29.19;26.03
61641;HTU21D;62201;49.966;8.342;2023-05-29T13:05:17;29.04;25.80
61641;HTU21D;62201;49.966;8.342;2023-05-29T13:07:45;28.92;25.64
61641;HTU21D;62201;49.966;8.342;2023-05-29T13:10:11;28.67;25.55
61641;HTU21D;62201;49.966;8.342;2023-05-29T13:12:37;28.70;25.75
61641;HTU21D;62201;49.966;8.342;2023-05-29T13:15:02;28.58;26.23
61641;HTU21D;62201;49.966;8.342;2023-05-29T13:17:28;28.92;25.97
61641;HTU21D;62201;49.966;8.342;2023-05-29T13:19:53;28.90;26.03
61641;HTU21D;62201;49.966;8.342;2023-05-29T13:22:18;29.07;26.11
61641;HTU21D;62201;49.966;8.342;2023-05-29T13:24:45;29.08;26.10
61641;HTU21D;62201;49.966;8.342;2023-05-29T13:27:10;29.15;25.35
61641;HTU21D;62201;49.966;8.342;2023-05-29T13:29:39;29.22;25.23
61641;HTU21D;62201;49.966;8.342;2023-05-29T13:32:06;29.49;25.14
61641;HTU21D;62201;49.966;8.342;2023-05-29T13:34:31;29.17;25.88
61641;HTU21D;62201;49.966;8.342;2023-05-29T13:36:57;29.45;25.75
61641;HTU21D;62201;49.966;8.342;2023-05-29T13:39:22;29.01;25.76
61641;HTU21D;62201;49.966;8.342;2023-05-29T13:41:48;29.42;25.01
61641;HTU21D;62201;49.966;8.342;2023-05-29T13:44:13;29.29;25.13
61641;HTU21D;62201;49.966;8.342;2023-05-29T13:46:39;29.78;24.73
61641;HTU21D;62201;49.966;8.342;2023-05-29T13:49:04;29.94;24.11
61641;HTU21D;62201;49.966;8.342;2023-05-29T13:51:30;30.39;23.73
61641;HTU21D;62201;49.966;8.342;2023-05-29T13:53:55;29.80;25.21
61641;HTU21D;62201;49.966;8.342;2023-05-29T13:56:20;29.65;25.40
61641;HTU21D;62201;49.966;8.342;2023-05-29T13:58:46;29.85;25.54
61641;HTU21D;62201;49.966;8.342;2023-05-29T14:01:11;29.87;25.81
61641;HTU21D;62201;49.966;8.342;2023-05-29T14:03:37;30.24;25.06
61641;HTU21D;62201;49.966;8.342;2023-05-29T14:06:03;29.54;25.42
61641;HTU21D;62201;49.966;8.342;2023-05-29T14:08:30;29.73;25.43
61641;HTU21D;62201;49.966;8.342;2023-05-29T14:10:56;29.81;25.75
61641;HTU21D;62201;49.966;8.342;2023-05-29T14:13:21;29.60;26.11
61641;HTU21D;62201;49.966;8.342;2023-05-29T14:15:47;29.21;26.79
61641;HTU21D;62201;49.966;8.342;2023-05-29T14:18:14;29.24;26.91
61641;HTU21D;62201;49.966;8.342;2023-05-29T14:20:39;29.80;26.14
61641;HTU21D;62201;49.966;8.342;2023-05-29T14:23:05;29.36;26.43
61641;HTU21D;62201;49.966;8.342;2023-05-29T14:25:30;29.27;26.07
61641;HTU21D;62201;49.966;8.342;2023-05-29T14:27:56;29.21;26.52
61641;HTU21D;62201;49.966;8.342;2023-05-29T14:30:21;29.33;26.43
61641;HTU21D;62201;49.966;8.342;2023-05-29T14:32:46;29.70;25.48
61641;HTU21D;62201;49.966;8.342;2023-05-29T14:35:12;29.67;25.22
61641;HTU21D;62201;49.966;8.342;2023-05-29T14:37:37;29.61;25.23
61641;HTU21D;62201;49.966;8.342;2023-05-29T14:40:03;29.86;24.80
61641;HTU21D;62201;49.966;8.342;2023-05-29T14:42:29;30.03;24.85
61641;HTU21D;62201;49.966;8.342;2023-05-29T14:44:54;29.95;25.40
61641;HTU21D;62201;49.966;8.342;2023-05-29T14:47:20;29.80;25.01
61641;HTU21D;62201;49.966;8.342;2023-05-29T14:49:45;29.74;25.07
61641;HTU21D;62201;49.966;8.342;2023-05-29T14:52:10;29.70;25.46
61641;HTU21D;62201;49.966;8.342;2023-05-29T14:54:36;30.13;25.37
61641;HTU21D;62201;49.966;8.342;2023-05-29T14:57:01;30.62;24.71
61641;HTU21D;62201;49.966;8.342;2023-05-29T14:59:27;30.66;23.99
61641;HTU21D;62201;49.966;8.342;2023-05-29T15:01:52;30.86;24.02
61641;HTU21D;62201;49.966;8.342;2023-05-29T15:04:19;30.77;23.75
61641;HTU21D;62201;49.966;8.342;2023-05-29T15:06:44;30.45;23.89
61641;HTU21D;62201;49.966;8.342;2023-05-29T15:09:10;30.36;24.41
61641;HTU21D;62201;49.966;8.342;2023-05-29T15:11:36;30.12;24.31
61641;HTU21D;62201;49.966;8.342;2023-05-29T15:14:01;29.91;24.39
61641;HTU21D;62201;49.966;8.342;2023-05-29T15:16:27;30.03;24.53
61641;HTU21D;62201;49.966;8.342;2023-05-29T15:18:52;29.96;24.78
61641;HTU21D;62201;49.966;8.342;2023-05-29T15:21:17;29.94;25.04
61641;HTU21D;62201;49.966;8.342;2023-05-29T15:23:43;29.93;25.51
61641;HTU21D;62201;49.966;8.342;2023-05-29T15:26:09;29.73;25.55
61641;HTU21D;62201;49.966;8.342;2023-05-29T15:28:35;29.67;25.86
61641;HTU21D;62201;49.966;8.342;2023-05-29T15:31:00;29.63;26.29
61641;HTU21D;62201;49.966;8.342;2023-05-29T15:33:26;29.36;26.91
61641;HTU21D;62201;49.966;8.342;2023-05-29T15:35:51;29.61;26.61
61641;HTU21D;62201;49.966;8.342;2023-05-29T15:38:17;29.68;26.96
61641;HTU21D;62201;49.966;8.342;2023-05-29T15:40:42;29.87;26.17
61641;HTU21D;62201;49.966;8.342;2023-05-29T15:43:08;29.61;26.53
61641;HTU21D;62201;49.966;8.342;2023-05-29T15:45:36;29.81;26.42